createdAt,value
2022-08-12T00:01:12.979Z,40.14
2022-08-12T00:03:59.970Z,39.84
2022-08-12T00:06:47.046Z,40.37
2022-08-12T00:09:33.328Z,39.82
2022-08-12T00:12:19.666Z,39.73
2022-08-12T00:15:06.081Z,40.31
2022-08-12T00:17:52.406Z,39.35
2022-08-12T00:20:38.869Z,40.33
2022-08-12T00:23:25.185Z,40.14
2022-08-12T00:26:22.993Z,39.86
2022-08-12T00:29:13.544Z,39.89
2022-08-12T00:32:01.306Z,40.54
2022-08-12T00:34:49.692Z,39.80
2022-08-12T00:37:40.796Z,40.66
2022-08-12T00:40:29.094Z,41.06
2022-08-12T00:42:57.648Z,40.51
2022-08-12T00:45:25.614Z,40.61
2022-08-12T00:47:54.144Z,41.25
2022-08-12T00:50:22.715Z,40.83
2022-08-12T00:52:52.924Z,40.69
2022-08-12T00:55:21.235Z,41.14
2022-08-12T00:57:50.673Z,41.24
2022-08-12T01:00:21.685Z,41.95
2022-08-12T01:02:55.725Z,41.49
2022-08-12T01:05:43.300Z,41.21
2022-08-12T01:08:30.130Z,41.93
2022-08-12T01:11:16.357Z,42.36
2022-08-12T01:13:48.238Z,42.03
2022-08-12T01:16:18.192Z,42.94
2022-08-12T01:18:46.095Z,42.09
2022-08-12T01:21:26.692Z,41.67
2022-08-12T01:24:29.687Z,42.14
2022-08-12T01:27:00.257Z,42.46
2022-08-12T01:29:32.457Z,42.82
2022-08-12T01:32:05.650Z,42.41
2022-08-12T01:34:39.461Z,43.42
2022-08-12T01:37:10.308Z,42.68
2022-08-12T01:40:34.587Z,43.25
2022-08-12T01:42:42.453Z,42.84
2022-08-12T01:45:12.430Z,42.18
2022-08-12T01:48:00.733Z,43.21
2022-08-12T01:50:51.077Z,42.34
2022-08-12T01:53:20.754Z,42.73
2022-08-12T01:55:48.876Z,42.48
2022-08-12T01:58:56.014Z,43.73
2022-08-12T02:01:30.779Z,43.75
2022-08-12T02:04:32.690Z,43.74
2022-08-12T02:07:54.267Z,42.87
2022-08-12T02:10:55.926Z,44.10
2022-08-12T02:13:49.785Z,44.47
2022-08-12T02:16:28.050Z,44.42
2022-08-12T02:19:22.232Z,43.99
2022-08-12T02:22:12.920Z,43.96
2022-08-12T02:24:42.585Z,44.79
2022-08-12T02:27:13.286Z,44.86
2022-08-12T02:29:40.973Z,44.66
2022-08-12T02:32:08.994Z,44.01
2022-08-12T02:34:37.841Z,45.11
2022-08-12T02:37:05.370Z,45.01
2022-08-12T02:39:34.427Z,45.47
2022-08-12T02:42:04.425Z,44.92
2022-08-12T02:44:37.258Z,45.37
2022-08-12T02:47:06.510Z,45.63
2022-08-12T02:49:36.253Z,45.21
2022-08-12T02:52:04.759Z,45.28
2022-08-12T02:54:32.493Z,45.53
2022-08-12T02:57:00.815Z,45.85
2022-08-12T02:59:29.565Z,46.30
2022-08-12T03:02:03.633Z,46.19
2022-08-12T03:04:39.050Z,46.35
2022-08-12T03:07:15.930Z,47.70
2022-08-12T03:10:03.674Z,47.17
2022-08-12T03:12:48.982Z,46.58
2022-08-12T03:15:22.246Z,47.15
2022-08-12T03:18:24.824Z,47.09
2022-08-12T03:20:46.148Z,47.54
2022-08-12T03:23:28.610Z,47.82
2022-08-12T03:26:01.794Z,48.33
2022-08-12T03:28:50.632Z,47.79
2022-08-12T03:31:24.721Z,47.20
2022-08-12T03:34:02.385Z,46.41
2022-08-12T03:36:35.921Z,47.56
2022-08-12T03:39:18.592Z,47.49
2022-08-12T03:42:06.191Z,47.61
2022-08-12T03:45:31.325Z,46.46
2022-08-12T03:48:24.005Z,47.13
2022-08-12T03:51:10.888Z,48.12
2022-08-12T03:53:56.926Z,48.10
2022-08-12T03:56:43.330Z,47.87
2022-08-12T03:59:29.951Z,48.35
2022-08-12T04:01:59.192Z,47.85
2022-08-12T04:04:35.446Z,48.55
2022-08-12T04:07:07.953Z,47.84
2022-08-12T04:09:38.354Z,47.97
2022-08-12T04:12:26.206Z,48.54
2022-08-12T04:14:57.095Z,47.67
2022-08-12T04:17:28.230Z,48.51
2022-08-12T04:19:57.840Z,47.87
2022-08-12T04:22:29.540Z,48.68
2022-08-12T04:25:01.158Z,48.12
2022-08-12T04:27:31.834Z,48.94
2022-08-12T04:30:29.920Z,48.11
2022-08-12T04:32:50.107Z,48.95
2022-08-12T04:35:18.449Z,49.70
2022-08-12T04:37:58.162Z,48.51
2022-08-12T04:40:33.214Z,48.90
2022-08-12T04:43:03.416Z,49.50
2022-08-12T04:45:32.960Z,48.15
2022-08-12T04:48:02.101Z,48.81
2022-08-12T04:50:34.557Z,49.58
2022-08-12T04:53:08.044Z,48.34
2022-08-12T04:55:38.867Z,48.96
2022-08-12T04:58:08.242Z,49.88
2022-08-12T05:00:36.293Z,48.85
2022-08-12T05:03:05.506Z,48.76
2022-08-12T05:05:36.329Z,48.99
2022-08-12T05:08:06.418Z,48.72
2022-08-12T05:10:35.843Z,47.43
2022-08-12T05:13:08.214Z,47.42
2022-08-12T05:16:03.953Z,47.67
2022-08-12T05:18:29.195Z,46.82
2022-08-12T05:20:59.197Z,47.00
2022-08-12T05:23:27.110Z,45.56
2022-08-12T05:25:57.146Z,46.31
2022-08-12T05:28:27.153Z,46.11
2022-08-12T05:30:55.536Z,45.90
2022-08-12T05:33:31.590Z,46.43
2022-08-12T05:35:59.411Z,45.80
2022-08-12T05:38:45.557Z,45.82
2022-08-12T05:41:20.490Z,45.45
2022-08-12T05:43:51.027Z,45.17
2022-08-12T05:46:20.753Z,45.35
2022-08-12T05:48:49.688Z,45.29
2022-08-12T05:51:18.927Z,45.20
2022-08-12T05:53:46.895Z,44.72
2022-08-12T05:56:27.498Z,44.56
2022-08-12T05:58:56.470Z,44.10
2022-08-12T06:02:12.276Z,44.04
2022-08-12T06:04:14.326Z,44.23
2022-08-12T06:06:42.381Z,43.05
2022-08-12T06:09:10.988Z,43.09
2022-08-12T06:12:04.106Z,41.97
2022-08-12T06:14:29.125Z,41.29
2022-08-12T06:16:58.019Z,40.97
2022-08-12T06:20:22.755Z,39.84
2022-08-12T06:22:15.672Z,40.63
2022-08-12T06:24:43.423Z,40.60
2022-08-12T06:27:11.688Z,40.08
2022-08-12T06:30:09.732Z,39.88
2022-08-12T06:32:35.340Z,39.50
2022-08-12T06:35:27.088Z,39.07
2022-08-12T06:37:57.164Z,39.01
2022-08-12T06:40:44.487Z,37.97
2022-08-12T06:43:13.726Z,38.35
2022-08-12T06:45:46.881Z,38.88
2022-08-12T06:48:15.454Z,38.71
2022-08-12T06:50:44.578Z,38.67
2022-08-12T06:53:12.463Z,38.21
2022-08-12T06:55:58.035Z,37.71
2022-08-12T06:58:31.668Z,38.06
2022-08-12T07:00:59.918Z,37.67
2022-08-12T07:03:28.712Z,37.23
2022-08-12T07:06:02.364Z,37.07
2022-08-12T07:08:34.898Z,37.27
2022-08-12T07:11:05.407Z,37.11
2022-08-12T07:14:12.789Z,37.27
2022-08-12T07:16:46.913Z,36.85
2022-08-12T07:19:15.487Z,37.06
2022-08-12T07:21:57.959Z,36.84
2022-08-12T07:24:28.489Z,36.60
2022-08-12T07:26:56.244Z,37.08
2022-08-12T07:29:25.475Z,36.50
2022-08-12T07:32:13.314Z,36.05
2022-08-12T07:34:42.420Z,36.40
2022-08-12T07:37:09.950Z,36.45
2022-08-12T07:39:51.367Z,37.15
2022-08-12T07:42:25.358Z,36.88
2022-08-12T07:44:55.039Z,36.67
2022-08-12T07:47:23.117Z,36.56
2022-08-12T07:50:04.303Z,36.69
2022-08-12T07:52:38.514Z,36.54
2022-08-12T07:55:06.872Z,36.60
2022-08-12T07:57:35.044Z,36.77
2022-08-12T08:00:05.990Z,36.85
2022-08-12T08:02:36.428Z,37.20
2022-08-12T08:05:05.033Z,36.79
2022-08-12T08:07:32.618Z,36.11
2022-08-12T08:10:01.010Z,36.16
2022-08-12T08:12:48.379Z,36.90
2022-08-12T08:15:16.263Z,36.10
2022-08-12T08:18:01.433Z,36.13
2022-08-12T08:20:34.224Z,36.33
2022-08-12T08:23:05.804Z,36.35
2022-08-12T08:25:36.792Z,35.53
2022-08-12T08:28:10.761Z,36.03
2022-08-12T08:30:43.027Z,35.83
2022-08-12T08:33:20.137Z,35.32
2022-08-12T08:36:00.859Z,35.90
2022-08-12T08:38:32.895Z,35.31
2022-08-12T08:42:13.982Z,35.94
2022-08-12T08:44:11.464Z,35.53
2022-08-12T08:46:44.625Z,34.67
2022-08-12T08:49:13.123Z,35.05
2022-08-12T08:51:40.835Z,35.03
2022-08-12T08:54:08.934Z,35.03
2022-08-12T08:56:52.438Z,34.56
2022-08-12T08:59:20.237Z,34.24
2022-08-12T09:01:48.277Z,34.34
2022-08-12T09:05:10.124Z,33.94
2022-08-12T09:07:17.737Z,34.05
2022-08-12T09:10:01.383Z,34.40
2022-08-12T09:13:03.657Z,34.05
2022-08-12T09:15:36.344Z,33.71
2022-08-12T09:18:05.961Z,33.38
2022-08-12T09:20:38.775Z,33.14
2022-08-12T09:25:57.175Z,33.01
2022-08-12T09:28:33.037Z,32.70
2022-08-12T09:31:00.537Z,33.55
2022-08-12T09:34:28.975Z,32.24
2022-08-12T09:36:31.125Z,32.71
2022-08-12T09:40:03.107Z,32.30
2022-08-12T09:42:38.693Z,32.71
2022-08-12T09:45:23.174Z,32.38
2022-08-12T09:47:59.905Z,31.42
2022-08-12T09:50:28.332Z,32.21
2022-08-12T09:53:15.133Z,31.48
2022-08-12T09:56:07.090Z,32.47
2022-08-12T09:58:56.634Z,31.39
2022-08-12T10:01:25.191Z,31.19
2022-08-12T10:04:04.985Z,31.57
2022-08-12T10:06:36.641Z,31.67
2022-08-12T10:09:21.138Z,31.91
2022-08-12T10:12:11.983Z,31.23
2022-08-12T10:14:50.300Z,31.48
2022-08-12T10:17:22.961Z,30.75
2022-08-12T10:19:53.018Z,30.00
2022-08-12T10:22:39.436Z,31.16
2022-08-12T10:26:18.219Z,30.55
2022-08-12T10:28:38.899Z,30.00
2022-08-12T10:31:16.332Z,29.81
2022-08-12T10:33:55.763Z,30.39
2022-08-12T10:36:40.733Z,30.13
2022-08-12T10:40:02.149Z,28.93
2022-08-12T10:42:29.619Z,28.95
2022-08-12T10:45:18.099Z,29.86
2022-08-12T10:48:14.938Z,30.55
2022-08-12T10:51:01.762Z,30.56
2022-08-12T10:53:44.219Z,30.09
2022-08-12T10:56:17.988Z,30.52
2022-08-12T10:58:47.186Z,29.75
2022-08-12T11:01:50.212Z,29.32
2022-08-12T11:04:24.946Z,29.32
2022-08-12T11:07:06.725Z,29.46
2022-08-12T11:10:00.625Z,29.81
2022-08-12T11:12:55.450Z,29.63
2022-08-12T11:15:24.213Z,29.98
2022-08-12T11:18:03.262Z,29.55
2022-08-12T11:20:31.496Z,28.35
2022-08-12T11:23:03.854Z,28.81
2022-08-12T11:25:56.892Z,28.87
2022-08-12T11:28:33.498Z,29.58
2022-08-12T11:31:11.866Z,28.65
2022-08-12T11:34:04.763Z,28.43
2022-08-12T11:36:31.047Z,28.24
2022-08-12T11:39:04.246Z,27.82
2022-08-12T11:41:39.323Z,27.98
2022-08-12T11:44:36.169Z,27.03
2022-08-12T11:46:55.135Z,27.09
2022-08-12T11:49:31.305Z,27.24
2022-08-12T11:52:04.410Z,26.09
2022-08-12T11:54:54.247Z,25.81
2022-08-12T11:58:14.337Z,26.03
2022-08-12T12:02:58.781Z,25.71
2022-08-12T12:05:28.480Z,26.58
2022-08-12T12:08:38.852Z,26.58
2022-08-12T12:10:57.359Z,26.95
2022-08-12T12:14:08.533Z,26.78
2022-08-12T12:16:15.020Z,26.41
2022-08-12T12:18:42.861Z,26.79
2022-08-12T12:21:10.334Z,26.75
2022-08-12T12:23:38.200Z,26.62
2022-08-12T12:26:35.724Z,26.47
2022-08-12T12:29:03.404Z,27.10
2022-08-12T12:32:10.448Z,26.75
2022-08-12T12:34:30.549Z,26.44
2022-08-12T12:36:58.587Z,26.36
2022-08-12T12:39:28.428Z,26.92
2022-08-12T12:42:42.866Z,26.63
2022-08-12T12:44:51.041Z,26.76
2022-08-12T12:47:29.345Z,26.65
2022-08-12T12:50:00.965Z,26.03
2022-08-12T12:52:28.375Z,25.90
2022-08-12T12:54:58.721Z,25.81
2022-08-12T12:57:36.150Z,25.81
2022-08-12T13:00:15.742Z,24.76
2022-08-12T13:02:57.665Z,24.71
2022-08-12T13:05:29.311Z,25.75
2022-08-12T13:08:01.442Z,24.58
2022-08-12T13:10:37.018Z,23.96
2022-08-12T13:14:07.398Z,24.26
2022-08-12T13:16:21.583Z,24.80
2022-08-12T13:18:54.160Z,23.85
2022-08-12T13:21:36.677Z,22.60
2022-08-12T13:24:10.254Z,21.23
2022-08-12T13:26:48.175Z,20.67
2022-08-12T13:29:20.282Z,20.74
2022-08-12T13:32:19.683Z,22.30
2022-08-12T13:35:04.233Z,23.13
2022-08-12T13:38:07.907Z,23.40
2022-08-12T13:40:46.262Z,24.24
2022-08-12T13:43:40.572Z,24.76
2022-08-12T13:46:18.180Z,24.34
2022-08-12T13:48:55.647Z,24.13
2022-08-12T13:51:24.761Z,24.57
2022-08-12T13:53:57.591Z,24.98
2022-08-12T13:56:34.852Z,24.63
2022-08-12T13:59:07.708Z,24.90
2022-08-12T14:01:40.779Z,24.46
2022-08-12T14:04:12.656Z,25.34
2022-08-12T14:06:41.373Z,24.80
2022-08-12T14:09:17.231Z,24.77
2022-08-12T14:11:58.851Z,25.02
2022-08-12T14:14:31.140Z,24.77
2022-08-12T14:17:10.407Z,24.63
2022-08-12T14:20:00.722Z,24.56
2022-08-12T14:22:30.403Z,23.92
2022-08-12T14:25:10.027Z,24.29
2022-08-12T14:28:03.775Z,24.11
2022-08-12T14:30:29.181Z,22.99
2022-08-12T14:33:03.441Z,22.90
2022-08-12T14:35:41.036Z,23.42
2022-08-12T14:38:25.453Z,23.84
2022-08-12T14:40:59.620Z,23.12
2022-08-12T14:43:44.565Z,23.00
2022-08-12T14:46:23.558Z,23.09
2022-08-12T14:48:53.915Z,21.75
2022-08-12T14:52:39.691Z,23.06
2022-08-12T14:57:05.760Z,22.39
2022-08-12T15:00:06.287Z,22.37
2022-08-12T15:02:34.937Z,22.27
2022-08-12T15:05:03.447Z,22.06
2022-08-12T15:07:34.453Z,22.87
2022-08-12T15:10:13.585Z,22.67
2022-08-12T15:12:41.456Z,22.22
2022-08-12T15:15:10.558Z,22.42
2022-08-12T15:17:39.669Z,22.20
2022-08-12T15:20:33.261Z,23.15
2022-08-12T15:22:57.873Z,22.42
2022-08-12T15:25:30.311Z,22.20
2022-08-12T15:28:25.981Z,22.58
2022-08-12T15:30:54.325Z,22.67
2022-08-12T15:33:24.151Z,22.84
2022-08-12T15:35:53.240Z,23.32
2022-08-12T15:38:28.157Z,22.56
2022-08-12T15:40:59.107Z,22.98
2022-08-12T15:44:14.211Z,23.23
2022-08-12T15:46:21.330Z,23.09
2022-08-12T15:48:53.610Z,23.53
2022-08-12T15:51:59.946Z,23.93
2022-08-12T15:54:34.399Z,23.45
2022-08-12T15:57:08.294Z,23.71
2022-08-12T16:00:00.653Z,23.86
2022-08-12T16:02:29.850Z,23.75
2022-08-12T16:04:58.499Z,24.10
2022-08-12T16:07:31.004Z,24.31
2022-08-12T16:10:05.942Z,24.01
2022-08-12T16:12:54.617Z,23.94
2022-08-12T16:15:29.603Z,24.40
2022-08-12T16:18:19.105Z,24.42
2022-08-12T16:20:48.291Z,24.13
2022-08-12T16:23:26.259Z,24.04
2022-08-12T16:26:15.565Z,24.95
2022-08-12T16:28:49.501Z,25.56
2022-08-12T16:31:23.126Z,26.77
2022-08-12T16:33:58.861Z,26.38
2022-08-12T16:36:31.952Z,26.27
2022-08-12T16:39:01.966Z,26.33
2022-08-12T16:41:39.451Z,27.26
2022-08-12T16:44:09.222Z,27.50
2022-08-12T16:46:50.676Z,27.03
2022-08-12T16:49:26.318Z,27.09
2022-08-12T16:52:12.577Z,27.58
2022-08-12T16:54:44.290Z,27.65
2022-08-12T16:57:13.950Z,27.68
2022-08-12T16:59:54.210Z,27.77
2022-08-12T17:02:33.445Z,27.52
2022-08-12T17:05:05.265Z,27.51
2022-08-12T17:07:43.505Z,27.27
2022-08-12T17:10:18.455Z,27.99
2022-08-12T17:13:20.112Z,28.12
2022-08-12T17:16:05.668Z,28.08
2022-08-12T17:18:45.492Z,28.08
2022-08-12T17:21:41.446Z,28.70
2022-08-12T17:24:22.384Z,28.72
2022-08-12T17:26:56.538Z,29.33
2022-08-12T17:30:01.079Z,29.58
2022-08-12T17:32:28.305Z,29.84
2022-08-12T17:35:19.580Z,30.09
2022-08-12T17:37:50.425Z,30.02
2022-08-12T17:40:40.690Z,30.26
2022-08-12T17:43:54.701Z,30.88
2022-08-12T17:46:03.388Z,31.02
2022-08-12T17:48:34.168Z,31.73
2022-08-12T17:51:16.028Z,31.36
2022-08-12T17:54:10.709Z,31.64
2022-08-12T17:56:37.464Z,31.86
2022-08-12T17:59:12.373Z,32.41
2022-08-12T18:01:47.560Z,32.11
2022-08-12T18:04:36.082Z,31.37
2022-08-12T18:07:14.123Z,32.49
2022-08-12T18:09:43.050Z,32.03
2022-08-12T18:12:35.627Z,32.01
2022-08-12T18:15:09.020Z,32.23
2022-08-12T18:17:39.665Z,32.94
2022-08-12T18:20:15.441Z,33.49
2022-08-12T18:22:47.196Z,33.68
2022-08-12T18:26:11.550Z,33.80
2022-08-12T18:28:30.786Z,32.84
2022-08-12T18:33:45.945Z,32.99
2022-08-12T18:36:22.465Z,33.14
2022-08-12T18:38:56.076Z,32.91
2022-08-12T18:41:36.037Z,32.30
2022-08-12T18:44:06.072Z,32.81
2022-08-12T18:46:54.978Z,32.97
2022-08-12T18:49:29.692Z,33.01
2022-08-12T18:52:04.138Z,33.19
2022-08-12T18:54:35.524Z,33.04
2022-08-12T18:57:16.734Z,33.75
2022-08-12T19:00:00.063Z,33.82
2022-08-12T19:02:36.052Z,33.54
2022-08-12T19:05:10.061Z,34.27
2022-08-12T19:07:50.119Z,34.86
2022-08-12T19:10:32.377Z,34.52
2022-08-12T19:13:23.048Z,34.83
2022-08-12T19:15:58.136Z,35.04
2022-08-12T19:18:31.121Z,34.87
2022-08-12T19:21:11.580Z,34.99
2022-08-12T19:24:15.516Z,37.53
2022-08-12T19:26:46.095Z,36.17
2022-08-12T19:29:25.309Z,36.54
2022-08-12T19:32:03.166Z,35.90
2022-08-12T19:38:03.186Z,35.41
2022-08-12T19:40:32.700Z,35.89
2022-08-12T19:43:20.094Z,36.35
2022-08-12T19:45:51.831Z,36.17
2022-08-12T19:48:22.966Z,36.37
2022-08-12T19:50:54.107Z,36.54
2022-08-12T19:53:23.444Z,38.08
2022-08-12T19:55:53.773Z,37.36
2022-08-12T19:58:22.803Z,37.78
2022-08-12T20:00:54.932Z,37.06
2022-08-12T20:03:38.275Z,37.83
2022-08-12T20:06:14.130Z,39.74
2022-08-12T20:08:53.822Z,38.46
2022-08-12T20:12:13.518Z,38.03
2022-08-12T20:14:20.968Z,37.92
2022-08-12T20:16:57.183Z,39.39
2022-08-12T20:20:01.141Z,38.32
2022-08-12T20:22:29.770Z,37.95
2022-08-12T20:25:14.011Z,40.85
2022-08-12T20:28:04.635Z,40.11
2022-08-12T20:30:59.195Z,39.92
2022-08-12T20:33:50.112Z,38.89
2022-08-12T20:36:40.713Z,38.90
2022-08-12T20:39:34.434Z,39.20
2022-08-12T20:42:07.435Z,39.67
2022-08-12T20:44:39.625Z,39.44
2022-08-12T20:47:17.953Z,39.55
2022-08-12T20:49:55.243Z,39.01
2022-08-12T20:52:29.822Z,38.79
2022-08-12T20:55:01.166Z,39.15
2022-08-12T20:57:37.828Z,39.31
2022-08-12T21:00:16.304Z,39.41
2022-08-12T21:02:50.092Z,39.81
2022-08-12T21:06:10.299Z,40.40
2022-08-12T21:08:30.999Z,39.06
2022-08-12T21:11:01.933Z,39.54
2022-08-12T21:13:29.563Z,39.90
2022-08-12T21:16:09.904Z,40.83
2022-08-12T21:18:38.138Z,40.40
2022-08-12T21:21:06.859Z,40.54
2022-08-12T21:23:52.316Z,40.73
2022-08-12T21:26:24.347Z,40.33
2022-08-12T21:29:01.400Z,41.04
2022-08-12T21:32:39.507Z,40.88
2022-08-12T21:34:23.003Z,41.19
2022-08-12T21:37:11.931Z,41.40
2022-08-12T21:39:52.446Z,40.56
2022-08-12T21:42:20.992Z,41.63
2022-08-12T21:45:47.003Z,40.43
2022-08-12T21:47:43.398Z,39.92
2022-08-12T21:50:11.098Z,40.53
2022-08-12T21:52:42.188Z,40.58
2022-08-12T21:55:18.019Z,41.79
2022-08-12T21:57:54.565Z,41.09
2022-08-12T22:00:35.139Z,40.67
2022-08-12T22:04:03.771Z,40.74
2022-08-12T22:06:31.114Z,40.92
2022-08-12T22:09:16.454Z,40.74
2022-08-12T22:11:57.006Z,41.07
2022-08-12T22:14:28.731Z,41.07
2022-08-12T22:16:57.376Z,39.88
2022-08-12T22:19:24.970Z,39.62
2022-08-12T22:21:58.873Z,39.68
2022-08-12T22:24:31.402Z,40.02
2022-08-12T22:27:14.485Z,39.69
2022-08-12T22:30:07.022Z,40.24
2022-08-12T22:32:38.914Z,40.18
2022-08-12T22:35:55.375Z,40.52
2022-08-12T22:38:23.935Z,41.15
2022-08-12T22:41:00.858Z,41.55
2022-08-12T22:44:01.127Z,41.20
2022-08-12T22:46:51.834Z,41.09
2022-08-12T22:49:36.292Z,41.77
2022-08-12T22:52:08.398Z,42.03
2022-08-12T22:54:37.548Z,42.04
2022-08-12T22:57:14.132Z,41.78
2022-08-12T22:59:55.647Z,42.07
2022-08-12T23:02:30.232Z,42.57
2022-08-12T23:04:58.603Z,42.13
2022-08-12T23:07:26.084Z,42.35
2022-08-12T23:09:54.801Z,41.45
2022-08-12T23:12:46.992Z,42.43
2022-08-12T23:15:16.466Z,42.76
2022-08-12T23:17:45.981Z,42.73
2022-08-12T23:20:15.108Z,42.45
2022-08-12T23:23:02.798Z,42.49
2022-08-12T23:25:32.645Z,42.16
2022-08-12T23:28:36.877Z,41.76
2022-08-12T23:31:06.583Z,41.89
2022-08-12T23:34:02.260Z,42.32
2022-08-12T23:36:39.384Z,41.32
2022-08-12T23:40:15.743Z,41.63
2022-08-12T23:42:16.944Z,40.31
2022-08-12T23:44:48.369Z,40.50
2022-08-12T23:47:21.434Z,40.48
2022-08-12T23:49:58.640Z,40.76
2022-08-12T23:52:34.394Z,40.98
2022-08-12T23:55:25.057Z,41.04
2022-08-12T23:58:18.118Z,41.11
